sensor_id;sensor_type;location;lat;lon;timestamp;temperature;humidity
11736;DHT22;5924;51.398;7.088;2023-03-25T00:00:59;8.70;99.90
11736;DHT22;5924;51.398;7.088;2023-03-25T00:03:30;8.80;99.90
11736;DHT22;5924;51.398;7.088;2023-03-25T00:05:58;8.70;99.90
11736;DHT22;5924;51.398;7.088;2023-03-25T00:08:24;8.60;99.90
11736;DHT22;5924;51.398;7.088;2023-03-25T00:10:55;8.60;99.90
11736;DHT22;5924;51.398;7.088;2023-03-25T00:13:21;8.40;99.90
11736;DHT22;5924;51.398;7.088;2023-03-25T00:15:49;8.30;99.90
11736;DHT22;5924;51.398;7.088;2023-03-25T00:18:19;8.20;99.90
11736;DHT22;5924;51.398;7.088;2023-03-25T00:20:48;8.20;99.90
11736;DHT22;5924;51.398;7.088;2023-03-25T00:23:15;8.30;99.90
11736;DHT22;5924;51.398;7.088;2023-03-25T00:25:41;8.40;99.90
11736;DHT22;5924;51.398;7.088;2023-03-25T00:28:10;8.40;99.90
11736;DHT22;5924;51.398;7.088;2023-03-25T00:30:37;8.40;99.90
11736;DHT22;5924;51.398;7.088;2023-03-25T00:33:03;8.50;99.90
11736;DHT22;5924;51.398;7.088;2023-03-25T00:35:28;8.40;99.90
11736;DHT22;5924;51.398;7.088;2023-03-25T00:37:54;8.40;99.90
11736;DHT22;5924;51.398;7.088;2023-03-25T00:40:26;8.40;99.90
11736;DHT22;5924;51.398;7.088;2023-03-25T00:42:55;8.40;99.90
11736;DHT22;5924;51.398;7.088;2023-03-25T00:45:22;8.50;99.90
11736;DHT22;5924;51.398;7.088;2023-03-25T00:47:48;8.50;99.90
11736;DHT22;5924;51.398;7.088;2023-03-25T00:50:14;10.10;99.90
11736;DHT22;5924;51.398;7.088;2023-03-25T00:52:39;8.60;99.90
11736;DHT22;5924;51.398;7.088;2023-03-25T00:55:06;8.60;99.90
11736;DHT22;5924;51.398;7.088;2023-03-25T00:57:32;8.50;99.90
11736;DHT22;5924;51.398;7.088;2023-03-25T00:59:57;8.50;99.90
11736;DHT22;5924;51.398;7.088;2023-03-25T01:02:23;8.50;99.90
11736;DHT22;5924;51.398;7.088;2023-03-25T01:04:49;8.50;99.90
11736;DHT22;5924;51.398;7.088;2023-03-25T01:07:19;8.50;99.90
11736;DHT22;5924;51.398;7.088;2023-03-25T01:09:47;8.60;99.90
11736;DHT22;5924;51.398;7.088;2023-03-25T01:12:14;8.60;99.90
11736;DHT22;5924;51.398;7.088;2023-03-25T01:14:40;8.60;99.90
11736;DHT22;5924;51.398;7.088;2023-03-25T01:17:06;8.60;99.90
11736;DHT22;5924;51.398;7.088;2023-03-25T01:19:32;8.60;99.90
11736;DHT22;5924;51.398;7.088;2023-03-25T01:21:58;8.60;99.90
11736;DHT22;5924;51.398;7.088;2023-03-25T01:24:24;8.60;99.90
11736;DHT22;5924;51.398;7.088;2023-03-25T01:26:50;8.50;99.90
11736;DHT22;5924;51.398;7.088;2023-03-25T01:29:19;8.50;99.90
11736;DHT22;5924;51.398;7.088;2023-03-25T01:31:45;8.50;99.90
11736;DHT22;5924;51.398;7.088;2023-03-25T01:34:12;8.50;99.90
11736;DHT22;5924;51.398;7.088;2023-03-25T01:36:38;8.50;99.90
11736;DHT22;5924;51.398;7.088;2023-03-25T01:39:06;8.60;99.90
11736;DHT22;5924;51.398;7.088;2023-03-25T01:41:34;8.60;99.90
11736;DHT22;5924;51.398;7.088;2023-03-25T01:46:56;7.80;99.90
11736;DHT22;5924;51.398;7.088;2023-03-25T01:49:43;8.60;99.90
11736;DHT22;5924;51.398;7.088;2023-03-25T01:52:17;8.70;99.90
11736;DHT22;5924;51.398;7.088;2023-03-25T01:54:46;8.70;99.90
11736;DHT22;5924;51.398;7.088;2023-03-25T01:57:18;8.70;99.90
11736;DHT22;5924;51.398;7.088;2023-03-25T01:59:45;8.70;99.90
11736;DHT22;5924;51.398;7.088;2023-03-25T02:02:12;8.70;99.90
11736;DHT22;5924;51.398;7.088;2023-03-25T02:04:59;8.70;99.90
11736;DHT22;5924;51.398;7.088;2023-03-25T02:07:30;8.80;99.90
11736;DHT22;5924;51.398;7.088;2023-03-25T02:10:03;8.70;99.90
11736;DHT22;5924;51.398;7.088;2023-03-25T02:12:30;8.70;99.90
11736;DHT22;5924;51.398;7.088;2023-03-25T02:14:56;8.80;99.90
11736;DHT22;5924;51.398;7.088;2023-03-25T02:28:25;8.70;99.90
11736;DHT22;5924;51.398;7.088;2023-03-25T02:45:04;8.70;99.90
11736;DHT22;5924;51.398;7.088;2023-03-25T02:47:36;8.60;99.90
11736;DHT22;5924;51.398;7.088;2023-03-25T02:50:08;8.60;99.90
11736;DHT22;5924;51.398;7.088;2023-03-25T02:52:45;8.60;99.90
11736;DHT22;5924;51.398;7.088;2023-03-25T02:55:13;8.60;99.90
11736;DHT22;5924;51.398;7.088;2023-03-25T02:57:43;8.60;99.90
11736;DHT22;5924;51.398;7.088;2023-03-25T03:00:12;8.60;99.90
11736;DHT22;5924;51.398;7.088;2023-03-25T03:02:57;8.60;99.90
11736;DHT22;5924;51.398;7.088;2023-03-25T03:05:31;8.60;99.90
11736;DHT22;5924;51.398;7.088;2023-03-25T03:08:36;8.60;99.90
11736;DHT22;5924;51.398;7.088;2023-03-25T03:17:04;8.50;99.90
11736;DHT22;5924;51.398;7.088;2023-03-25T03:19:53;8.60;99.90
11736;DHT22;5924;51.398;7.088;2023-03-25T03:30:43;8.50;99.90
11736;DHT22;5924;51.398;7.088;2023-03-25T03:33:32;8.50;99.90
11736;DHT22;5924;51.398;7.088;2023-03-25T03:36:06;8.40;99.90
11736;DHT22;5924;51.398;7.088;2023-03-25T03:38:38;8.40;99.90
11736;DHT22;5924;51.398;7.088;2023-03-25T03:41:08;8.40;99.90
11736;DHT22;5924;51.398;7.088;2023-03-25T03:44:13;8.40;99.90
11736;DHT22;5924;51.398;7.088;2023-03-25T03:46:50;8.30;99.90
11736;DHT22;5924;51.398;7.088;2023-03-25T03:49:21;8.30;99.90
11736;DHT22;5924;51.398;7.088;2023-03-25T03:52:02;8.30;99.90
11736;DHT22;5924;51.398;7.088;2023-03-25T03:54:46;8.30;99.90
11736;DHT22;5924;51.398;7.088;2023-03-25T03:57:20;8.30;99.90
11736;DHT22;5924;51.398;7.088;2023-03-25T04:05:05;8.20;99.90
11736;DHT22;5924;51.398;7.088;2023-03-25T04:10:20;8.20;99.90
11736;DHT22;5924;51.398;7.088;2023-03-25T04:12:50;8.20;99.90
11736;DHT22;5924;51.398;7.088;2023-03-25T04:15:17;8.20;99.90
11736;DHT22;5924;51.398;7.088;2023-03-25T04:17:43;8.20;99.90
11736;DHT22;5924;51.398;7.088;2023-03-25T04:20:20;8.20;99.90
11736;DHT22;5924;51.398;7.088;2023-03-25T04:22:48;8.20;99.90
11736;DHT22;5924;51.398;7.088;2023-03-25T04:25:16;8.30;99.90
11736;DHT22;5924;51.398;7.088;2023-03-25T04:27:41;8.30;99.90
11736;DHT22;5924;51.398;7.088;2023-03-25T04:30:10;8.40;99.90
11736;DHT22;5924;51.398;7.088;2023-03-25T04:32:36;8.30;99.90
11736;DHT22;5924;51.398;7.088;2023-03-25T04:35:02;8.30;99.90
11736;DHT22;5924;51.398;7.088;2023-03-25T04:37:28;8.20;99.90
11736;DHT22;5924;51.398;7.088;2023-03-25T04:39:54;8.10;99.90
11736;DHT22;5924;51.398;7.088;2023-03-25T04:42:24;8.00;99.90
11736;DHT22;5924;51.398;7.088;2023-03-25T04:44:57;7.90;99.90
11736;DHT22;5924;51.398;7.088;2023-03-25T04:47:23;7.90;99.90
11736;DHT22;5924;51.398;7.088;2023-03-25T04:49:49;7.80;99.90
11736;DHT22;5924;51.398;7.088;2023-03-25T04:52:15;7.70;99.90
11736;DHT22;5924;51.398;7.088;2023-03-25T04:54:41;7.60;99.90
11736;DHT22;5924;51.398;7.088;2023-03-25T04:57:09;7.60;99.90
11736;DHT22;5924;51.398;7.088;2023-03-25T04:59:35;7.60;99.90
11736;DHT22;5924;51.398;7.088;2023-03-25T05:02:02;7.60;99.90
11736;DHT22;5924;51.398;7.088;2023-03-25T05:04:30;7.60;99.90
11736;DHT22;5924;51.398;7.088;2023-03-25T05:06:56;7.70;99.90
11736;DHT22;5924;51.398;7.088;2023-03-25T05:09:22;7.70;99.90
11736;DHT22;5924;51.398;7.088;2023-03-25T05:11:50;7.80;99.90
11736;DHT22;5924;51.398;7.088;2023-03-25T05:14:17;7.90;99.90
11736;DHT22;5924;51.398;7.088;2023-03-25T05:16:43;8.00;99.90
11736;DHT22;5924;51.398;7.088;2023-03-25T05:19:10;8.10;99.90
11736;DHT22;5924;51.398;7.088;2023-03-25T05:21:38;8.10;99.90
11736;DHT22;5924;51.398;7.088;2023-03-25T05:24:07;8.00;99.90
11736;DHT22;5924;51.398;7.088;2023-03-25T05:26:35;7.90;99.90
11736;DHT22;5924;51.398;7.088;2023-03-25T05:29:05;7.70;99.90
11736;DHT22;5924;51.398;7.088;2023-03-25T05:31:32;7.50;99.90
11736;DHT22;5924;51.398;7.088;2023-03-25T05:33:58;7.40;99.90
11736;DHT22;5924;51.398;7.088;2023-03-25T05:36:24;7.40;99.90
11736;DHT22;5924;51.398;7.088;2023-03-25T05:38:51;7.30;99.90
11736;DHT22;5924;51.398;7.088;2023-03-25T05:41:19;7.30;99.90
11736;DHT22;5924;51.398;7.088;2023-03-25T05:43:47;7.30;99.90
11736;DHT22;5924;51.398;7.088;2023-03-25T05:46:16;7.30;99.90
11736;DHT22;5924;51.398;7.088;2023-03-25T05:48:43;7.40;99.90
11736;DHT22;5924;51.398;7.088;2023-03-25T05:51:17;7.40;99.90
11736;DHT22;5924;51.398;7.088;2023-03-25T05:53:47;7.50;99.90
11736;DHT22;5924;51.398;7.088;2023-03-25T05:56:17;7.50;99.90
11736;DHT22;5924;51.398;7.088;2023-03-25T05:58:47;7.60;99.90
11736;DHT22;5924;51.398;7.088;2023-03-25T06:01:14;7.60;99.90
11736;DHT22;5924;51.398;7.088;2023-03-25T06:03:41;7.70;99.90
11736;DHT22;5924;51.398;7.088;2023-03-25T06:06:08;7.70;99.90
11736;DHT22;5924;51.398;7.088;2023-03-25T06:08:47;7.80;99.90
11736;DHT22;5924;51.398;7.088;2023-03-25T06:11:17;7.80;99.90
11736;DHT22;5924;51.398;7.088;2023-03-25T06:13:44;8.00;99.90
11736;DHT22;5924;51.398;7.088;2023-03-25T06:16:21;8.00;99.90
11736;DHT22;5924;51.398;7.088;2023-03-25T06:18:48;8.10;99.90
11736;DHT22;5924;51.398;7.088;2023-03-25T06:21:21;8.20;99.90
11736;DHT22;5924;51.398;7.088;2023-03-25T06:23:48;8.20;99.90
11736;DHT22;5924;51.398;7.088;2023-03-25T06:26:19;8.20;99.90
11736;DHT22;5924;51.398;7.088;2023-03-25T06:28:45;8.30;99.90
11736;DHT22;5924;51.398;7.088;2023-03-25T06:31:13;8.30;99.90
11736;DHT22;5924;51.398;7.088;2023-03-25T06:33:41;8.20;99.90
11736;DHT22;5924;51.398;7.088;2023-03-25T06:36:08;8.20;99.90
11736;DHT22;5924;51.398;7.088;2023-03-25T06:38:36;8.10;99.90
11736;DHT22;5924;51.398;7.088;2023-03-25T06:41:02;8.10;99.90
11736;DHT22;5924;51.398;7.088;2023-03-25T06:43:28;8.10;99.90
11736;DHT22;5924;51.398;7.088;2023-03-25T06:45:53;9.00;99.90
11736;DHT22;5924;51.398;7.088;2023-03-25T06:48:19;8.10;99.90
11736;DHT22;5924;51.398;7.088;2023-03-25T06:50:44;8.20;99.90
11736;DHT22;5924;51.398;7.088;2023-03-25T06:53:10;8.10;99.90
11736;DHT22;5924;51.398;7.088;2023-03-25T06:55:36;8.10;99.90
11736;DHT22;5924;51.398;7.088;2023-03-25T06:58:03;8.00;99.90
11736;DHT22;5924;51.398;7.088;2023-03-25T07:00:29;7.80;99.90
11736;DHT22;5924;51.398;7.088;2023-03-25T07:02:55;7.60;99.90
11736;DHT22;5924;51.398;7.088;2023-03-25T07:05:23;7.60;99.90
11736;DHT22;5924;51.398;7.088;2023-03-25T07:07:48;7.70;99.90
11736;DHT22;5924;51.398;7.088;2023-03-25T07:10:15;7.70;99.90
11736;DHT22;5924;51.398;7.088;2023-03-25T07:12:40;7.80;99.90
11736;DHT22;5924;51.398;7.088;2023-03-25T07:15:07;7.80;99.90
11736;DHT22;5924;51.398;7.088;2023-03-25T07:17:33;7.90;99.90
11736;DHT22;5924;51.398;7.088;2023-03-25T07:19:59;7.90;99.90
11736;DHT22;5924;51.398;7.088;2023-03-25T07:22:25;7.90;99.90
11736;DHT22;5924;51.398;7.088;2023-03-25T07:24:51;8.00;99.90
11736;DHT22;5924;51.398;7.088;2023-03-25T07:27:17;8.10;99.90
11736;DHT22;5924;51.398;7.088;2023-03-25T07:29:43;8.20;99.90
11736;DHT22;5924;51.398;7.088;2023-03-25T07:32:08;5.80;99.90
11736;DHT22;5924;51.398;7.088;2023-03-25T07:34:34;8.40;99.90
11736;DHT22;5924;51.398;7.088;2023-03-25T07:37:00;8.60;99.90
11736;DHT22;5924;51.398;7.088;2023-03-25T07:39:26;8.60;99.90
11736;DHT22;5924;51.398;7.088;2023-03-25T07:41:52;8.70;99.90
11736;DHT22;5924;51.398;7.088;2023-03-25T07:44:18;8.70;99.90
11736;DHT22;5924;51.398;7.088;2023-03-25T07:46:47;8.70;99.90
11736;DHT22;5924;51.398;7.088;2023-03-25T07:49:13;8.70;99.90
11736;DHT22;5924;51.398;7.088;2023-03-25T07:51:40;8.70;99.90
11736;DHT22;5924;51.398;7.088;2023-03-25T07:54:05;8.80;99.90
11736;DHT22;5924;51.398;7.088;2023-03-25T07:56:31;8.60;99.90
11736;DHT22;5924;51.398;7.088;2023-03-25T07:58:57;8.60;99.90
11736;DHT22;5924;51.398;7.088;2023-03-25T08:01:22;8.70;99.90
11736;DHT22;5924;51.398;7.088;2023-03-25T08:03:48;8.70;99.90
11736;DHT22;5924;51.398;7.088;2023-03-25T08:06:14;8.70;99.90
11736;DHT22;5924;51.398;7.088;2023-03-25T08:08:40;8.60;99.90
11736;DHT22;5924;51.398;7.088;2023-03-25T08:11:06;8.60;99.90
11736;DHT22;5924;51.398;7.088;2023-03-25T08:13:32;8.60;99.90
11736;DHT22;5924;51.398;7.088;2023-03-25T08:15:58;8.60;99.90
11736;DHT22;5924;51.398;7.088;2023-03-25T08:18:24;8.60;99.90
11736;DHT22;5924;51.398;7.088;2023-03-25T08:20:50;8.60;99.90
11736;DHT22;5924;51.398;7.088;2023-03-25T08:23:16;8.60;99.90
11736;DHT22;5924;51.398;7.088;2023-03-25T08:25:43;8.80;99.90
11736;DHT22;5924;51.398;7.088;2023-03-25T08:28:09;8.90;99.90
11736;DHT22;5924;51.398;7.088;2023-03-25T08:30:36;9.10;99.90
11736;DHT22;5924;51.398;7.088;2023-03-25T08:33:04;9.40;99.90
11736;DHT22;5924;51.398;7.088;2023-03-25T08:35:31;9.50;99.90
11736;DHT22;5924;51.398;7.088;2023-03-25T08:37:57;9.80;99.90
11736;DHT22;5924;51.398;7.088;2023-03-25T08:40:26;10.00;99.90
11736;DHT22;5924;51.398;7.088;2023-03-25T08:42:52;10.00;99.90
11736;DHT22;5924;51.398;7.088;2023-03-25T08:45:18;9.90;99.90
11736;DHT22;5924;51.398;7.088;2023-03-25T08:47:44;9.80;99.90
11736;DHT22;5924;51.398;7.088;2023-03-25T08:50:11;9.10;99.90
11736;DHT22;5924;51.398;7.088;2023-03-25T08:52:36;9.80;99.90
11736;DHT22;5924;51.398;7.088;2023-03-25T08:55:06;9.80;99.90
11736;DHT22;5924;51.398;7.088;2023-03-25T08:57:34;9.80;99.90
11736;DHT22;5924;51.398;7.088;2023-03-25T09:00:01;9.90;99.90
11736;DHT22;5924;51.398;7.088;2023-03-25T09:02:27;9.90;99.90
11736;DHT22;5924;51.398;7.088;2023-03-25T09:04:52;10.00;99.90
11736;DHT22;5924;51.398;7.088;2023-03-25T09:07:18;10.00;99.90
11736;DHT22;5924;51.398;7.088;2023-03-25T09:09:45;10.10;99.90
11736;DHT22;5924;51.398;7.088;2023-03-25T09:12:11;10.30;99.90
11736;DHT22;5924;51.398;7.088;2023-03-25T09:14:37;10.30;99.90
11736;DHT22;5924;51.398;7.088;2023-03-25T09:17:02;10.30;99.90
11736;DHT22;5924;51.398;7.088;2023-03-25T09:19:30;10.50;99.90
11736;DHT22;5924;51.398;7.088;2023-03-25T09:21:56;10.50;99.90
11736;DHT22;5924;51.398;7.088;2023-03-25T09:24:21;10.70;99.90
11736;DHT22;5924;51.398;7.088;2023-03-25T09:26:48;10.50;99.90
11736;DHT22;5924;51.398;7.088;2023-03-25T09:29:13;10.50;99.90
11736;DHT22;5924;51.398;7.088;2023-03-25T09:31:39;10.60;99.90
11736;DHT22;5924;51.398;7.088;2023-03-25T09:34:05;10.70;99.90
11736;DHT22;5924;51.398;7.088;2023-03-25T09:36:31;10.80;99.90
11736;DHT22;5924;51.398;7.088;2023-03-25T09:38:57;10.60;99.90
11736;DHT22;5924;51.398;7.088;2023-03-25T09:45:04;9.90;99.90
11736;DHT22;5924;51.398;7.088;2023-03-25T09:47:25;9.50;99.90
11736;DHT22;5924;51.398;7.088;2023-03-25T09:49:56;9.20;99.90
11736;DHT22;5924;51.398;7.088;2023-03-25T09:52:28;9.10;99.90
11736;DHT22;5924;51.398;7.088;2023-03-25T09:55:03;9.20;99.90
11736;DHT22;5924;51.398;7.088;2023-03-25T09:57:31;9.20;99.90
11736;DHT22;5924;51.398;7.088;2023-03-25T10:00:00;9.30;99.90
11736;DHT22;5924;51.398;7.088;2023-03-25T10:02:38;9.40;99.90
11736;DHT22;5924;51.398;7.088;2023-03-25T10:07:55;9.90;99.90
11736;DHT22;5924;51.398;7.088;2023-03-25T10:10:32;10.30;99.90
11736;DHT22;5924;51.398;7.088;2023-03-25T10:24:35;11.00;99.90
11736;DHT22;5924;51.398;7.088;2023-03-25T10:27:09;11.10;99.90
11736;DHT22;5924;51.398;7.088;2023-03-25T10:29:52;11.10;99.90
11736;DHT22;5924;51.398;7.088;2023-03-25T10:32:32;11.00;99.90
11736;DHT22;5924;51.398;7.088;2023-03-25T10:35:02;11.00;99.90
11736;DHT22;5924;51.398;7.088;2023-03-25T10:37:39;9.80;99.90
11736;DHT22;5924;51.398;7.088;2023-03-25T10:40:26;11.30;99.90
11736;DHT22;5924;51.398;7.088;2023-03-25T10:45:30;11.70;99.90
11736;DHT22;5924;51.398;7.088;2023-03-25T10:48:05;11.60;99.90
11736;DHT22;5924;51.398;7.088;2023-03-25T10:50:32;11.60;99.90
11736;DHT22;5924;51.398;7.088;2023-03-25T10:52:57;11.60;99.90
11736;DHT22;5924;51.398;7.088;2023-03-25T10:55:27;11.40;99.90
11736;DHT22;5924;51.398;7.088;2023-03-25T10:57:54;11.40;99.90
11736;DHT22;5924;51.398;7.088;2023-03-25T11:00:21;11.20;99.90
11736;DHT22;5924;51.398;7.088;2023-03-25T11:02:51;11.20;99.90
11736;DHT22;5924;51.398;7.088;2023-03-25T11:05:19;11.20;99.90
11736;DHT22;5924;51.398;7.088;2023-03-25T11:07:59;11.20;99.90
11736;DHT22;5924;51.398;7.088;2023-03-25T11:10:31;11.00;99.90
11736;DHT22;5924;51.398;7.088;2023-03-25T11:12:59;10.40;99.90
11736;DHT22;5924;51.398;7.088;2023-03-25T11:15:36;9.80;99.90
11736;DHT22;5924;51.398;7.088;2023-03-25T11:20:40;9.10;99.90
11736;DHT22;5924;51.398;7.088;2023-03-25T11:23:34;9.10;99.90
11736;DHT22;5924;51.398;7.088;2023-03-25T11:26:05;9.30;99.90
11736;DHT22;5924;51.398;7.088;2023-03-25T11:28:45;9.40;99.90
11736;DHT22;5924;51.398;7.088;2023-03-25T11:31:15;9.40;99.90
11736;DHT22;5924;51.398;7.088;2023-03-25T11:33:44;9.30;99.90
11736;DHT22;5924;51.398;7.088;2023-03-25T11:39:37;9.40;99.90
11736;DHT22;5924;51.398;7.088;2023-03-25T11:44:49;9.50;99.90
11736;DHT22;5924;51.398;7.088;2023-03-25T11:47:21;9.20;99.90
11736;DHT22;5924;51.398;7.088;2023-03-25T11:49:51;9.30;99.90
11736;DHT22;5924;51.398;7.088;2023-03-25T11:52:21;9.10;99.90
11736;DHT22;5924;51.398;7.088;2023-03-25T11:54:49;9.10;99.90
11736;DHT22;5924;51.398;7.088;2023-03-25T11:57:23;9.20;99.90
11736;DHT22;5924;51.398;7.088;2023-03-25T12:00:01;9.50;99.90
11736;DHT22;5924;51.398;7.088;2023-03-25T12:02:40;9.80;99.90
11736;DHT22;5924;51.398;7.088;2023-03-25T12:07:48;10.50;99.90
11736;DHT22;5924;51.398;7.088;2023-03-25T12:13:11;10.30;99.90
11736;DHT22;5924;51.398;7.088;2023-03-25T12:43:08;14.40;99.90
11736;DHT22;5924;51.398;7.088;2023-03-25T12:45:51;14.70;99.90
11736;DHT22;5924;51.398;7.088;2023-03-25T12:51:06;14.20;99.90
11736;DHT22;5924;51.398;7.088;2023-03-25T12:56:33;15.30;99.90
11736;DHT22;5924;51.398;7.088;2023-03-25T13:02:05;15.50;99.90
11736;DHT22;5924;51.398;7.088;2023-03-25T13:07:24;16.00;99.90
11736;DHT22;5924;51.398;7.088;2023-03-25T13:12:48;16.30;99.90
11736;DHT22;5924;51.398;7.088;2023-03-25T13:20:37;14.90;99.90
11736;DHT22;5924;51.398;7.088;2023-03-25T13:23:06;14.60;99.90
11736;DHT22;5924;51.398;7.088;2023-03-25T13:28:17;13.50;99.90
11736;DHT22;5924;51.398;7.088;2023-03-25T13:30:45;12.60;99.90
11736;DHT22;5924;51.398;7.088;2023-03-25T13:33:19;11.90;99.90
11736;DHT22;5924;51.398;7.088;2023-03-25T13:35:56;11.10;99.90
11736;DHT22;5924;51.398;7.088;2023-03-25T13:38:56;10.50;99.90
11736;DHT22;5924;51.398;7.088;2023-03-25T13:41:28;10.20;99.90
11736;DHT22;5924;51.398;7.088;2023-03-25T13:46:35;10.20;99.90
11736;DHT22;5924;51.398;7.088;2023-03-25T13:51:37;10.90;99.90
11736;DHT22;5924;51.398;7.088;2023-03-25T13:54:11;12.20;99.90
11736;DHT22;5924;51.398;7.088;2023-03-25T14:04:47;10.90;99.90
11736;DHT22;5924;51.398;7.088;2023-03-25T14:07:38;10.90;99.90
11736;DHT22;5924;51.398;7.088;2023-03-25T14:10:34;11.20;99.90
11736;DHT22;5924;51.398;7.088;2023-03-25T14:13:04;12.00;99.90
11736;DHT22;5924;51.398;7.088;2023-03-25T14:15:36;11.80;99.90
11736;DHT22;5924;51.398;7.088;2023-03-25T14:18:04;11.30;99.90
11736;DHT22;5924;51.398;7.088;2023-03-25T14:20:37;11.20;99.90
11736;DHT22;5924;51.398;7.088;2023-03-25T14:23:06;10.90;99.90
11736;DHT22;5924;51.398;7.088;2023-03-25T14:25:41;10.50;99.90
11736;DHT22;5924;51.398;7.088;2023-03-25T14:28:18;10.00;99.90
11736;DHT22;5924;51.398;7.088;2023-03-25T14:39:36;8.70;99.90
11736;DHT22;5924;51.398;7.088;2023-03-25T14:44:29;8.40;99.90
11736;DHT22;5924;51.398;7.088;2023-03-25T14:47:01;8.30;99.90
11736;DHT22;5924;51.398;7.088;2023-03-25T14:55:16;8.20;99.90
11736;DHT22;5924;51.398;7.088;2023-03-25T14:57:43;8.30;99.90
11736;DHT22;5924;51.398;7.088;2023-03-25T15:00:25;8.50;99.90
11736;DHT22;5924;51.398;7.088;2023-03-25T15:03:12;8.70;99.90
11736;DHT22;5924;51.398;7.088;2023-03-25T15:05:40;8.60;99.90
11736;DHT22;5924;51.398;7.088;2023-03-25T15:08:13;8.50;99.90
11736;DHT22;5924;51.398;7.088;2023-03-25T15:10:43;8.40;99.90
11736;DHT22;5924;51.398;7.088;2023-03-25T15:13:23;8.30;99.90
11736;DHT22;5924;51.398;7.088;2023-03-25T15:15:52;8.30;99.90
11736;DHT22;5924;51.398;7.088;2023-03-25T15:23:46;8.30;99.90
11736;DHT22;5924;51.398;7.088;2023-03-25T15:31:44;8.10;99.90
11736;DHT22;5924;51.398;7.088;2023-03-25T15:53:45;8.60;99.90
11736;DHT22;5924;51.398;7.088;2023-03-25T15:56:23;8.60;99.90
11736;DHT22;5924;51.398;7.088;2023-03-25T15:58:58;8.60;99.90
11736;DHT22;5924;51.398;7.088;2023-03-25T16:01:32;8.60;99.90
11736;DHT22;5924;51.398;7.088;2023-03-25T16:04:38;8.60;99.90
11736;DHT22;5924;51.398;7.088;2023-03-25T16:07:04;8.40;99.90
11736;DHT22;5924;51.398;7.088;2023-03-25T16:09:31;8.30;99.90
11736;DHT22;5924;51.398;7.088;2023-03-25T16:11:59;8.20;99.90
11736;DHT22;5924;51.398;7.088;2023-03-25T16:14:28;8.20;99.90
11736;DHT22;5924;51.398;7.088;2023-03-25T16:16:56;8.30;99.90
11736;DHT22;5924;51.398;7.088;2023-03-25T16:22:02;9.40;99.90
11736;DHT22;5924;51.398;7.088;2023-03-25T16:24:32;10.10;99.90
11736;DHT22;5924;51.398;7.088;2023-03-25T16:27:09;10.40;99.90
11736;DHT22;5924;51.398;7.088;2023-03-25T16:29:36;11.00;99.90
11736;DHT22;5924;51.398;7.088;2023-03-25T16:32:04;11.10;99.90
11736;DHT22;5924;51.398;7.088;2023-03-25T16:34:34;10.60;99.90
11736;DHT22;5924;51.398;7.088;2023-03-25T16:37:03;10.30;99.90
11736;DHT22;5924;51.398;7.088;2023-03-25T16:39:32;10.50;99.90
11736;DHT22;5924;51.398;7.088;2023-03-25T16:42:02;11.00;99.90
11736;DHT22;5924;51.398;7.088;2023-03-25T16:44:31;11.40;99.90
11736;DHT22;5924;51.398;7.088;2023-03-25T16:46:58;11.30;99.90
11736;DHT22;5924;51.398;7.088;2023-03-25T16:49:34;10.80;99.90
11736;DHT22;5924;51.398;7.088;2023-03-25T16:52:06;10.30;99.90
11736;DHT22;5924;51.398;7.088;2023-03-25T16:55:41;9.90;99.90
11736;DHT22;5924;51.398;7.088;2023-03-25T16:57:37;9.50;99.90
11736;DHT22;5924;51.398;7.088;2023-03-25T17:02:42;9.10;99.90
11736;DHT22;5924;51.398;7.088;2023-03-25T17:05:34;9.10;99.90
11736;DHT22;5924;51.398;7.088;2023-03-25T17:08:14;9.00;99.90
11736;DHT22;5924;51.398;7.088;2023-03-25T17:10:48;8.90;99.90
11736;DHT22;5924;51.398;7.088;2023-03-25T17:13:40;8.90;99.90
11736;DHT22;5924;51.398;7.088;2023-03-25T17:16:07;8.90;99.90
11736;DHT22;5924;51.398;7.088;2023-03-25T17:18:33;8.90;99.90
11736;DHT22;5924;51.398;7.088;2023-03-25T17:21:01;9.20;99.90
11736;DHT22;5924;51.398;7.088;2023-03-25T17:23:36;8.90;99.90
11736;DHT22;5924;51.398;7.088;2023-03-25T17:26:09;8.90;99.90
11736;DHT22;5924;51.398;7.088;2023-03-25T17:29:02;8.80;99.90
11736;DHT22;5924;51.398;7.088;2023-03-25T17:31:35;8.80;99.90
11736;DHT22;5924;51.398;7.088;2023-03-25T17:34:11;8.70;99.90
11736;DHT22;5924;51.398;7.088;2023-03-25T17:36:40;8.60;99.90
11736;DHT22;5924;51.398;7.088;2023-03-25T17:39:17;8.60;99.90
11736;DHT22;5924;51.398;7.088;2023-03-25T17:41:45;8.60;99.90
11736;DHT22;5924;51.398;7.088;2023-03-25T17:44:15;8.60;99.90
11736;DHT22;5924;51.398;7.088;2023-03-25T17:46:41;8.50;99.90
11736;DHT22;5924;51.398;7.088;2023-03-25T17:49:14;8.40;99.90
11736;DHT22;5924;51.398;7.088;2023-03-25T17:51:41;8.30;99.90
11736;DHT22;5924;51.398;7.088;2023-03-25T17:54:07;8.20;99.90
11736;DHT22;5924;51.398;7.088;2023-03-25T17:56:33;8.10;99.90
11736;DHT22;5924;51.398;7.088;2023-03-25T17:59:09;8.00;99.90
11736;DHT22;5924;51.398;7.088;2023-03-25T18:01:37;7.90;99.90
11736;DHT22;5924;51.398;7.088;2023-03-25T18:04:02;7.90;99.90
11736;DHT22;5924;51.398;7.088;2023-03-25T18:06:29;8.10;99.90
11736;DHT22;5924;51.398;7.088;2023-03-25T18:08:55;8.10;99.90
11736;DHT22;5924;51.398;7.088;2023-03-25T18:11:20;8.10;99.90
11736;DHT22;5924;51.398;7.088;2023-03-25T18:13:46;8.10;99.90
11736;DHT22;5924;51.398;7.088;2023-03-25T18:16:20;8.20;99.90
11736;DHT22;5924;51.398;7.088;2023-03-25T18:18:46;7.00;99.90
11736;DHT22;5924;51.398;7.088;2023-03-25T18:21:13;8.20;99.90
11736;DHT22;5924;51.398;7.088;2023-03-25T18:23:40;8.30;99.90
11736;DHT22;5924;51.398;7.088;2023-03-25T18:26:14;8.30;99.90
11736;DHT22;5924;51.398;7.088;2023-03-25T18:28:40;8.30;99.90
11736;DHT22;5924;51.398;7.088;2023-03-25T18:31:10;8.30;99.90
11736;DHT22;5924;51.398;7.088;2023-03-25T18:33:43;8.30;99.90
11736;DHT22;5924;51.398;7.088;2023-03-25T18:36:10;8.30;99.90
11736;DHT22;5924;51.398;7.088;2023-03-25T18:38:36;8.30;99.90
11736;DHT22;5924;51.398;7.088;2023-03-25T18:41:02;8.30;99.90
11736;DHT22;5924;51.398;7.088;2023-03-25T18:43:28;8.40;99.90
11736;DHT22;5924;51.398;7.088;2023-03-25T18:45:54;8.40;99.90
11736;DHT22;5924;51.398;7.088;2023-03-25T18:48:20;9.60;99.90
11736;DHT22;5924;51.398;7.088;2023-03-25T18:50:53;8.40;99.90
11736;DHT22;5924;51.398;7.088;2023-03-25T18:53:21;8.40;99.90
11736;DHT22;5924;51.398;7.088;2023-03-25T18:55:48;8.50;99.90
11736;DHT22;5924;51.398;7.088;2023-03-25T18:58:19;8.50;99.90
11736;DHT22;5924;51.398;7.088;2023-03-25T19:00:46;8.50;99.90
11736;DHT22;5924;51.398;7.088;2023-03-25T19:03:13;8.50;99.90
11736;DHT22;5924;51.398;7.088;2023-03-25T19:05:39;8.50;99.90
11736;DHT22;5924;51.398;7.088;2023-03-25T19:08:05;8.50;99.90
11736;DHT22;5924;51.398;7.088;2023-03-25T19:10:33;8.50;99.90
11736;DHT22;5924;51.398;7.088;2023-03-25T19:12:59;8.60;99.90
11736;DHT22;5924;51.398;7.088;2023-03-25T19:15:26;8.60;99.90
11736;DHT22;5924;51.398;7.088;2023-03-25T19:17:54;8.60;99.90
11736;DHT22;5924;51.398;7.088;2023-03-25T19:20:24;8.60;99.90
11736;DHT22;5924;51.398;7.088;2023-03-25T19:22:51;8.60;99.90
11736;DHT22;5924;51.398;7.088;2023-03-25T19:25:17;8.70;99.90
11736;DHT22;5924;51.398;7.088;2023-03-25T19:27:43;8.70;99.90
11736;DHT22;5924;51.398;7.088;2023-03-25T19:30:12;8.70;99.90
11736;DHT22;5924;51.398;7.088;2023-03-25T19:32:38;8.60;99.90
11736;DHT22;5924;51.398;7.088;2023-03-25T19:35:04;8.30;99.90
11736;DHT22;5924;51.398;7.088;2023-03-25T19:37:32;8.10;99.90